sensor_id;sensor_type;location;lat;lon;timestamp;pressure;altitude;pressure_sealevel;temperature;humidity
70909;BME280;58554;52.006;5.926;2023-04-26T00:01:00;101049.59;;;7.67;55.58
70909;BME280;58554;52.006;5.926;2023-04-26T00:03:27;101054.06;;;7.65;55.54
70909;BME280;58554;52.006;5.926;2023-04-26T00:05:54;101059.38;;;7.64;55.40
70909;BME280;58554;52.006;5.926;2023-04-26T00:08:20;101054.25;;;7.61;55.60
70909;BME280;58554;52.006;5.926;2023-04-26T00:10:47;101053.44;;;7.59;55.48
70909;BME280;58554;52.006;5.926;2023-04-26T00:13:13;101053.50;;;7.57;55.70
70909;BME280;58554;52.006;5.926;2023-04-26T00:15:42;101055.41;;;7.54;55.43
70909;BME280;58554;52.006;5.926;2023-04-26T00:18:09;101046.69;;;7.51;55.71
70909;BME280;58554;52.006;5.926;2023-04-26T00:20:35;101051.16;;;7.49;55.66
70909;BME280;58554;52.006;5.926;2023-04-26T00:23:02;101052.97;;;7.49;55.66
70909;BME280;58554;52.006;5.926;2023-04-26T00:25:28;101055.59;;;7.49;55.74
70909;BME280;58554;52.006;5.926;2023-04-26T00:27:54;101050.31;;;7.49;55.69
70909;BME280;58554;52.006;5.926;2023-04-26T00:30:21;101058.22;;;7.49;55.67
70909;BME280;58554;52.006;5.926;2023-04-26T00:32:50;101054.75;;;7.48;55.75
70909;BME280;58554;52.006;5.926;2023-04-26T00:35:17;101048.69;;;7.46;55.78
70909;BME280;58554;52.006;5.926;2023-04-26T00:37:43;101054.03;;;7.43;55.81
70909;BME280;58554;52.006;5.926;2023-04-26T00:40:12;101049.72;;;7.42;56.01
70909;BME280;58554;52.006;5.926;2023-04-26T00:42:39;101049.72;;;7.42;56.14
70909;BME280;58554;52.006;5.926;2023-04-26T00:45:07;101052.41;;;7.41;56.08
70909;BME280;58554;52.006;5.926;2023-04-26T00:47:34;101050.66;;;7.40;55.97
70909;BME280;58554;52.006;5.926;2023-04-26T00:50:06;101055.94;;;7.40;56.00
70909;BME280;58554;52.006;5.926;2023-04-26T00:52:33;101056.84;;;7.39;55.95
70909;BME280;58554;52.006;5.926;2023-04-26T00:55:00;101048.94;;;7.39;55.95
70909;BME280;58554;52.006;5.926;2023-04-26T00:57:27;101051.63;;;7.37;56.22
70909;BME280;58554;52.006;5.926;2023-04-26T00:59:53;101045.50;;;7.37;56.16
70909;BME280;58554;52.006;5.926;2023-04-26T01:02:20;101049.94;;;7.36;56.33
70909;BME280;58554;52.006;5.926;2023-04-26T01:04:46;101050.91;;;7.34;56.22
70909;BME280;58554;52.006;5.926;2023-04-26T01:07:16;101039.50;;;7.33;56.28
70909;BME280;58554;52.006;5.926;2023-04-26T01:09:43;101047.34;;;7.35;56.19
70909;BME280;58554;52.006;5.926;2023-04-26T01:12:10;101044.78;;;7.33;56.13
70909;BME280;58554;52.006;5.926;2023-04-26T01:14:39;101048.34;;;7.32;56.23
70909;BME280;58554;52.006;5.926;2023-04-26T01:17:06;101048.44;;;7.29;56.34
70909;BME280;58554;52.006;5.926;2023-04-26T01:19:32;101047.59;;;7.28;56.46
70909;BME280;58554;52.006;5.926;2023-04-26T01:21:59;101047.63;;;7.27;56.42
70909;BME280;58554;52.006;5.926;2023-04-26T01:24:28;101044.16;;;7.26;56.50
70909;BME280;58554;52.006;5.926;2023-04-26T01:26:54;101052.91;;;7.27;56.59
70909;BME280;58554;52.006;5.926;2023-04-26T01:29:22;101059.94;;;7.26;56.59
70909;BME280;58554;52.006;5.926;2023-04-26T01:31:48;101059.03;;;7.27;56.75
70909;BME280;58554;52.006;5.926;2023-04-26T01:34:15;101058.16;;;7.27;56.61
70909;BME280;58554;52.006;5.926;2023-04-26T01:36:42;101056.50;;;7.24;56.57
70909;BME280;58554;52.006;5.926;2023-04-26T01:39:08;101075.84;;;7.23;56.75
70909;BME280;58554;52.006;5.926;2023-04-26T01:41:38;101059.28;;;7.21;56.56
70909;BME280;58554;52.006;5.926;2023-04-26T01:44:04;101059.28;;;7.21;56.55
70909;BME280;58554;52.006;5.926;2023-04-26T01:46:31;101057.50;;;7.22;56.74
70909;BME280;58554;52.006;5.926;2023-04-26T01:48:57;101057.53;;;7.20;56.73
70909;BME280;58554;52.006;5.926;2023-04-26T01:51:24;101057.53;;;7.20;56.87
70909;BME280;58554;52.006;5.926;2023-04-26T01:53:50;101050.59;;;7.19;56.93
70909;BME280;58554;52.006;5.926;2023-04-26T01:56:17;101053.22;;;7.19;56.85
70909;BME280;58554;52.006;5.926;2023-04-26T01:58:47;101051.50;;;7.18;56.88
70909;BME280;58554;52.006;5.926;2023-04-26T02:01:13;101054.91;;;7.20;57.02
70909;BME280;58554;52.006;5.926;2023-04-26T02:03:40;101051.44;;;7.20;56.78
70909;BME280;58554;52.006;5.926;2023-04-26T02:06:06;101050.50;;;7.21;56.71
70909;BME280;58554;52.006;5.926;2023-04-26T02:08:33;101049.56;;;7.23;56.91
70909;BME280;58554;52.006;5.926;2023-04-26T02:11:01;101046.03;;;7.23;56.68
70909;BME280;58554;52.006;5.926;2023-04-26T02:13:27;101049.66;;;7.20;56.67
70909;BME280;58554;52.006;5.926;2023-04-26T02:15:56;101050.50;;;7.21;56.75
70909;BME280;58554;52.006;5.926;2023-04-26T02:18:23;101050.63;;;7.18;56.86
70909;BME280;58554;52.006;5.926;2023-04-26T02:20:49;101049.00;;;7.15;56.87
70909;BME280;58554;52.006;5.926;2023-04-26T02:23:16;101047.25;;;7.14;56.89
70909;BME280;58554;52.006;5.926;2023-04-26T02:25:45;101045.66;;;7.10;56.73
70909;BME280;58554;52.006;5.926;2023-04-26T02:28:12;101063.22;;;7.09;56.82
70909;BME280;58554;52.006;5.926;2023-04-26T02:30:39;101054.47;;;7.09;56.91
70909;BME280;58554;52.006;5.926;2023-04-26T02:33:08;101060.53;;;7.11;56.68
70909;BME280;58554;52.006;5.926;2023-04-26T02:35:35;101060.53;;;7.11;56.75
70909;BME280;58554;52.006;5.926;2023-04-26T02:38:02;101062.41;;;7.07;56.95
70909;BME280;58554;52.006;5.926;2023-04-26T02:40:29;101059.03;;;7.04;56.82
70909;BME280;58554;52.006;5.926;2023-04-26T02:42:56;101056.41;;;7.04;56.88
70909;BME280;58554;52.006;5.926;2023-04-26T02:45:22;101050.22;;;7.06;56.99
70909;BME280;58554;52.006;5.926;2023-04-26T02:47:49;101044.81;;;7.09;56.84
70909;BME280;58554;52.006;5.926;2023-04-26T02:50:18;101049.97;;;7.13;57.10
70909;BME280;58554;52.006;5.926;2023-04-26T02:52:45;101048.06;;;7.16;56.97
70909;BME280;58554;52.006;5.926;2023-04-26T02:55:11;101047.88;;;7.21;56.65
70909;BME280;58554;52.006;5.926;2023-04-26T02:57:38;101044.28;;;7.23;56.85
70909;BME280;58554;52.006;5.926;2023-04-26T03:00:07;101051.19;;;7.26;56.76
70909;BME280;58554;52.006;5.926;2023-04-26T03:02:34;101052.06;;;7.26;56.74
70909;BME280;58554;52.006;5.926;2023-04-26T03:05:01;101039.75;;;7.27;56.78
70909;BME280;58554;52.006;5.926;2023-04-26T03:07:30;101045.81;;;7.29;56.53
70909;BME280;58554;52.006;5.926;2023-04-26T03:09:57;101042.22;;;7.31;56.45
70909;BME280;58554;52.006;5.926;2023-04-26T03:12:23;101043.97;;;7.31;56.58
70909;BME280;58554;52.006;5.926;2023-04-26T03:14:49;101043.91;;;7.32;56.62
70909;BME280;58554;52.006;5.926;2023-04-26T03:17:16;101042.09;;;7.35;56.52
70909;BME280;58554;52.006;5.926;2023-04-26T03:19:42;101048.94;;;7.39;56.44
70909;BME280;58554;52.006;5.926;2023-04-26T03:22:09;101045.41;;;7.40;56.45
70909;BME280;58554;52.006;5.926;2023-04-26T03:24:38;101045.34;;;7.41;56.44
70909;BME280;58554;52.006;5.926;2023-04-26T03:27:04;101045.31;;;7.43;56.78
70909;BME280;58554;52.006;5.926;2023-04-26T03:29:31;101045.25;;;7.44;56.44
70909;BME280;58554;52.006;5.926;2023-04-26T03:31:57;101039.94;;;7.46;56.21
70909;BME280;58554;52.006;5.926;2023-04-26T03:34:24;101036.38;;;7.47;56.49
70909;BME280;58554;52.006;5.926;2023-04-26T03:36:50;101038.94;;;7.48;56.36
70909;BME280;58554;52.006;5.926;2023-04-26T03:39:17;101039.06;;;7.45;56.53
70909;BME280;58554;52.006;5.926;2023-04-26T03:41:46;101032.09;;;7.44;56.48
70909;BME280;58554;52.006;5.926;2023-04-26T03:44:12;101033.97;;;7.41;56.42
70909;BME280;58554;52.006;5.926;2023-04-26T03:46:39;101036.63;;;7.39;56.47
70909;BME280;58554;52.006;5.926;2023-04-26T03:49:05;101037.66;;;7.35;56.41
70909;BME280;58554;52.006;5.926;2023-04-26T03:51:32;101032.59;;;7.30;56.24
70909;BME280;58554;52.006;5.926;2023-04-26T03:53:58;101035.38;;;7.27;56.53
70909;BME280;58554;52.006;5.926;2023-04-26T03:56:25;101028.50;;;7.23;56.58
70909;BME280;58554;52.006;5.926;2023-04-26T03:58:54;101024.16;;;7.22;56.48
70909;BME280;58554;52.006;5.926;2023-04-26T04:01:20;101030.34;;;7.21;56.71
70909;BME280;58554;52.006;5.926;2023-04-26T04:03:47;101032.19;;;7.19;56.59
70909;BME280;58554;52.006;5.926;2023-04-26T04:06:14;101024.47;;;7.15;56.80
70909;BME280;58554;52.006;5.926;2023-04-26T04:08:41;101024.56;;;7.11;56.62
70909;BME280;58554;52.006;5.926;2023-04-26T04:11:07;101033.44;;;7.09;56.54
70909;BME280;58554;52.006;5.926;2023-04-26T04:13:34;101026.53;;;7.06;56.86
70909;BME280;58554;52.006;5.926;2023-04-26T04:16:04;101035.38;;;7.04;56.90
70909;BME280;58554;52.006;5.926;2023-04-26T04:18:31;101031.06;;;7.03;56.62
70909;BME280;58554;52.006;5.926;2023-04-26T04:20:58;101035.50;;;7.01;56.63
70909;BME280;58554;52.006;5.926;2023-04-26T04:23:24;101037.34;;;6.99;56.74
70909;BME280;58554;52.006;5.926;2023-04-26T04:25:51;101034.81;;;6.96;56.74
70909;BME280;58554;52.006;5.926;2023-04-26T04:28:17;101039.22;;;6.95;56.58
70909;BME280;58554;52.006;5.926;2023-04-26T04:30:44;101035.94;;;6.90;56.31
70909;BME280;58554;52.006;5.926;2023-04-26T04:33:13;101039.63;;;6.84;56.45
70909;BME280;58554;52.006;5.926;2023-04-26T04:35:40;101032.09;;;6.75;56.51
70909;BME280;58554;52.006;5.926;2023-04-26T04:38:07;101042.03;;;6.67;56.33
70909;BME280;58554;52.006;5.926;2023-04-26T04:40:33;101039.72;;;6.58;56.70
70909;BME280;58554;52.006;5.926;2023-04-26T04:43:00;101042.66;;;6.50;56.79
70909;BME280;58554;52.006;5.926;2023-04-26T04:45:26;101035.03;;;6.42;56.80
70909;BME280;58554;52.006;5.926;2023-04-26T04:47:53;101037.06;;;6.34;56.83
70909;BME280;58554;52.006;5.926;2023-04-26T04:50:22;101028.56;;;6.27;56.75
70909;BME280;58554;52.006;5.926;2023-04-26T04:52:48;101040.09;;;6.23;57.01
70909;BME280;58554;52.006;5.926;2023-04-26T04:55:15;101043.78;;;6.18;57.46
70909;BME280;58554;52.006;5.926;2023-04-26T04:57:42;101040.47;;;6.13;57.25
70909;BME280;58554;52.006;5.926;2023-04-26T05:00:09;101046.66;;;6.10;57.52
70909;BME280;58554;52.006;5.926;2023-04-26T05:02:37;101053.78;;;6.06;57.38
70909;BME280;58554;52.006;5.926;2023-04-26T05:05:07;101058.16;;;6.06;57.65
70909;BME280;58554;52.006;5.926;2023-04-26T05:07:37;101044.22;;;6.04;57.47
70909;BME280;58554;52.006;5.926;2023-04-26T05:10:05;101056.56;;;6.02;57.70
70909;BME280;58554;52.006;5.926;2023-04-26T05:12:35;101051.38;;;6.00;58.01
70909;BME280;58554;52.006;5.926;2023-04-26T05:15:03;101052.28;;;5.99;57.83
70909;BME280;58554;52.006;5.926;2023-04-26T05:17:33;101067.16;;;5.99;57.94
70909;BME280;58554;52.006;5.926;2023-04-26T05:19:59;101061.97;;;5.97;58.15
70909;BME280;58554;52.006;5.926;2023-04-26T05:22:26;101061.16;;;5.95;58.25
70909;BME280;58554;52.006;5.926;2023-04-26T05:24:55;101053.28;;;5.95;58.05
70909;BME280;58554;52.006;5.926;2023-04-26T05:27:21;101068.13;;;5.96;58.20
70909;BME280;58554;52.006;5.926;2023-04-26T05:29:48;101070.75;;;5.96;58.38
70909;BME280;58554;52.006;5.926;2023-04-26T05:32:14;101070.66;;;5.99;58.19
70909;BME280;58554;52.006;5.926;2023-04-26T05:34:41;101067.94;;;6.02;58.45
70909;BME280;58554;52.006;5.926;2023-04-26T05:37:07;101076.50;;;6.07;58.43
70909;BME280;58554;52.006;5.926;2023-04-26T05:39:34;101074.59;;;6.13;58.60
70909;BME280;58554;52.006;5.926;2023-04-26T05:42:03;101068.25;;;6.18;58.65
70909;BME280;58554;52.006;5.926;2023-04-26T05:44:29;101072.44;;;6.24;58.46
70909;BME280;58554;52.006;5.926;2023-04-26T05:46:56;101076.72;;;6.26;58.45
70909;BME280;58554;52.006;5.926;2023-04-26T05:49:22;101073.94;;;6.31;58.24
70909;BME280;58554;52.006;5.926;2023-04-26T05:51:49;101080.00;;;6.33;58.49
70909;BME280;58554;52.006;5.926;2023-04-26T05:54:15;101074.69;;;6.35;58.58
70909;BME280;58554;52.006;5.926;2023-04-26T05:56:42;101083.38;;;6.37;58.42
70909;BME280;58554;52.006;5.926;2023-04-26T05:59:11;101087.78;;;6.36;58.34
70909;BME280;58554;52.006;5.926;2023-04-26T06:01:37;101085.97;;;6.38;58.39
70909;BME280;58554;52.006;5.926;2023-04-26T06:04:04;101085.00;;;6.41;58.24
70909;BME280;58554;52.006;5.926;2023-04-26T06:06:30;101082.31;;;6.42;58.32
70909;BME280;58554;52.006;5.926;2023-04-26T06:08:57;101080.44;;;6.46;58.52
70909;BME280;58554;52.006;5.926;2023-04-26T06:11:23;101082.06;;;6.50;58.34
70909;BME280;58554;52.006;5.926;2023-04-26T06:13:50;101090.66;;;6.54;58.52
70909;BME280;58554;52.006;5.926;2023-04-26T06:16:20;101087.03;;;6.58;58.42
70909;BME280;58554;52.006;5.926;2023-04-26T06:18:47;101094.69;;;6.64;58.14
70909;BME280;58554;52.006;5.926;2023-04-26T06:21:14;101097.09;;;6.70;58.09
70909;BME280;58554;52.006;5.926;2023-04-26T06:23:40;101095.97;;;6.77;58.23
70909;BME280;58554;52.006;5.926;2023-04-26T06:26:07;101086.03;;;6.85;58.12
70909;BME280;58554;52.006;5.926;2023-04-26T06:28:33;101091.00;;;6.93;57.99
70909;BME280;58554;52.006;5.926;2023-04-26T06:31:00;101096.78;;;7.03;58.27
70909;BME280;58554;52.006;5.926;2023-04-26T06:33:29;101089.28;;;7.16;58.39
70909;BME280;58554;52.006;5.926;2023-04-26T06:35:55;101091.41;;;7.29;58.10
70909;BME280;58554;52.006;5.926;2023-04-26T06:38:22;101084.78;;;7.43;57.79
70909;BME280;58554;52.006;5.926;2023-04-26T06:40:48;101093.78;;;7.59;57.78
70909;BME280;58554;52.006;5.926;2023-04-26T06:43:15;101090.41;;;7.78;57.64
70909;BME280;58554;52.006;5.926;2023-04-26T06:45:41;101081.81;;;7.95;57.43
70909;BME280;58554;52.006;5.926;2023-04-26T06:48:07;101095.22;;;8.10;57.23
70909;BME280;58554;52.006;5.926;2023-04-26T06:50:39;101092.84;;;8.25;57.27
70909;BME280;58554;52.006;5.926;2023-04-26T06:53:05;101098.56;;;8.35;56.85
70909;BME280;58554;52.006;5.926;2023-04-26T06:55:32;101096.41;;;8.44;56.74
70909;BME280;58554;52.006;5.926;2023-04-26T06:57:59;101092.50;;;8.53;56.76
70909;BME280;58554;52.006;5.926;2023-04-26T07:00:25;101091.25;;;8.62;56.43
70909;BME280;58554;52.006;5.926;2023-04-26T07:02:52;101102.25;;;8.71;56.20
70909;BME280;58554;52.006;5.926;2023-04-26T07:05:19;101095.78;;;8.79;56.05
70909;BME280;58554;52.006;5.926;2023-04-26T07:07:48;101107.78;;;8.86;55.81
70909;BME280;58554;52.006;5.926;2023-04-26T07:10:15;101107.56;;;8.90;55.65
70909;BME280;58554;52.006;5.926;2023-04-26T07:12:42;101109.00;;;8.98;55.58
70909;BME280;58554;52.006;5.926;2023-04-26T07:15:09;101109.66;;;9.03;55.61
70909;BME280;58554;52.006;5.926;2023-04-26T07:17:36;101116.56;;;9.05;55.48
70909;BME280;58554;52.006;5.926;2023-04-26T07:20:06;101113.66;;;9.11;55.50
70909;BME280;58554;52.006;5.926;2023-04-26T07:22:33;101113.31;;;9.19;55.35
70909;BME280;58554;52.006;5.926;2023-04-26T07:25:03;101112.00;;;9.29;55.10
70909;BME280;58554;52.006;5.926;2023-04-26T07:27:30;101114.06;;;9.42;54.96
70909;BME280;58554;52.006;5.926;2023-04-26T07:29:56;101117.03;;;9.53;54.98
70909;BME280;58554;52.006;5.926;2023-04-26T07:32:23;101109.75;;;9.58;54.60
70909;BME280;58554;52.006;5.926;2023-04-26T07:34:49;101112.09;;;9.64;54.41
70909;BME280;58554;52.006;5.926;2023-04-26T07:37:16;101105.91;;;9.65;54.44
70909;BME280;58554;52.006;5.926;2023-04-26T07:39:42;101108.38;;;9.68;54.13
70909;BME280;58554;52.006;5.926;2023-04-26T07:42:11;101100.88;;;9.78;53.99
70909;BME280;58554;52.006;5.926;2023-04-26T07:44:38;101099.56;;;9.87;53.86
70909;BME280;58554;52.006;5.926;2023-04-26T07:47:04;101104.41;;;9.96;53.92
70909;BME280;58554;52.006;5.926;2023-04-26T07:49:36;101101.28;;;10.05;53.37
70909;BME280;58554;52.006;5.926;2023-04-26T07:52:03;101096.47;;;10.13;53.13
70909;BME280;58554;52.006;5.926;2023-04-26T07:54:30;101096.78;;;10.25;53.13
70909;BME280;58554;52.006;5.926;2023-04-26T07:56:56;101107.69;;;10.36;53.05
70909;BME280;58554;52.006;5.926;2023-04-26T07:59:25;101098.75;;;10.39;52.50
70909;BME280;58554;52.006;5.926;2023-04-26T08:01:52;101095.84;;;10.43;52.58
70909;BME280;58554;52.006;5.926;2023-04-26T08:04:30;101102.44;;;10.52;52.59
70909;BME280;58554;52.006;5.926;2023-04-26T08:06:57;101097.88;;;10.55;52.12
70909;BME280;58554;52.006;5.926;2023-04-26T08:09:24;101102.06;;;10.60;51.65
70909;BME280;58554;52.006;5.926;2023-04-26T08:11:50;101099.47;;;10.58;51.45
70909;BME280;58554;52.006;5.926;2023-04-26T08:14:16;101095.84;;;10.61;51.55
70909;BME280;58554;52.006;5.926;2023-04-26T08:16:45;101106.13;;;10.67;51.56
70909;BME280;58554;52.006;5.926;2023-04-26T08:19:12;101109.34;;;10.72;51.20
70909;BME280;58554;52.006;5.926;2023-04-26T08:21:38;101111.06;;;10.73;51.00
70909;BME280;58554;52.006;5.926;2023-04-26T08:24:06;101115.34;;;10.75;51.05
70909;BME280;58554;52.006;5.926;2023-04-26T08:26:32;101114.31;;;10.78;50.78
70909;BME280;58554;52.006;5.926;2023-04-26T08:28:59;101113.63;;;10.74;50.47
70909;BME280;58554;52.006;5.926;2023-04-26T08:31:25;101110.13;;;10.74;50.37
70909;BME280;58554;52.006;5.926;2023-04-26T08:33:54;101108.31;;;10.74;50.40
70909;BME280;58554;52.006;5.926;2023-04-26T08:36:21;101110.91;;;10.76;50.35
70909;BME280;58554;52.006;5.926;2023-04-26T08:38:47;101109.41;;;10.88;51.00
70909;BME280;58554;52.006;5.926;2023-04-26T08:41:14;101120.03;;;11.04;50.70
70909;BME280;58554;52.006;5.926;2023-04-26T08:43:47;101112.41;;;11.15;50.12
70909;BME280;58554;52.006;5.926;2023-04-26T08:46:18;101110.41;;;11.19;49.85
70909;BME280;58554;52.006;5.926;2023-04-26T08:48:50;101113.75;;;11.22;49.95
70909;BME280;58554;52.006;5.926;2023-04-26T08:51:26;101117.19;;;11.24;49.66
70909;BME280;58554;52.006;5.926;2023-04-26T08:53:54;101115.38;;;11.25;49.24
70909;BME280;58554;52.006;5.926;2023-04-26T08:56:24;101116.41;;;11.22;49.14
70909;BME280;58554;52.006;5.926;2023-04-26T08:58:51;101114.94;;;11.17;48.82
70909;BME280;58554;52.006;5.926;2023-04-26T09:01:19;101111.53;;;11.14;48.84
70909;BME280;58554;52.006;5.926;2023-04-26T09:03:48;101113.16;;;11.17;49.08
70909;BME280;58554;52.006;5.926;2023-04-26T09:06:18;101114.72;;;11.21;49.15
70909;BME280;58554;52.006;5.926;2023-04-26T09:08:45;101107.44;;;11.25;48.97
70909;BME280;58554;52.006;5.926;2023-04-26T09:11:13;101112.72;;;11.25;49.02
70909;BME280;58554;52.006;5.926;2023-04-26T09:13:39;101118.97;;;11.24;49.12
70909;BME280;58554;52.006;5.926;2023-04-26T09:16:06;101101.47;;;11.21;48.60
70909;BME280;58554;52.006;5.926;2023-04-26T09:18:33;101105.81;;;11.22;49.01
70909;BME280;58554;52.006;5.926;2023-04-26T09:21:03;101104.72;;;11.26;49.02
70909;BME280;58554;52.006;5.926;2023-04-26T09:23:34;101111.56;;;11.30;49.04
70909;BME280;58554;52.006;5.926;2023-04-26T09:26:17;101098.16;;;11.33;48.86
70909;BME280;58554;52.006;5.926;2023-04-26T09:28:44;101096.94;;;11.39;49.13
70909;BME280;58554;52.006;5.926;2023-04-26T09:31:12;101089.34;;;11.49;49.24
70909;BME280;58554;52.006;5.926;2023-04-26T09:34:00;101092.94;;;11.64;48.77
70909;BME280;58554;52.006;5.926;2023-04-26T09:36:26;101092.16;;;11.78;48.64
70909;BME280;58554;52.006;5.926;2023-04-26T09:38:55;101087.06;;;11.89;48.63
70909;BME280;58554;52.006;5.926;2023-04-26T09:41:22;101092.03;;;11.95;48.14
70909;BME280;58554;52.006;5.926;2023-04-26T09:43:49;101097.41;;;11.93;47.91
70909;BME280;58554;52.006;5.926;2023-04-26T09:46:21;101089.91;;;11.86;47.76
70909;BME280;58554;52.006;5.926;2023-04-26T09:48:59;101097.72;;;11.73;47.75
70909;BME280;58554;52.006;5.926;2023-04-26T09:51:26;101098.50;;;11.59;47.62
70909;BME280;58554;52.006;5.926;2023-04-26T09:53:55;101100.88;;;11.48;47.59
70909;BME280;58554;52.006;5.926;2023-04-26T09:56:22;101103.19;;;11.38;47.81
70909;BME280;58554;52.006;5.926;2023-04-26T09:58:55;101105.41;;;11.30;47.96
70909;BME280;58554;52.006;5.926;2023-04-26T10:01:24;101107.69;;;11.20;48.25
70909;BME280;58554;52.006;5.926;2023-04-26T10:03:52;101110.69;;;11.14;48.34
70909;BME280;58554;52.006;5.926;2023-04-26T10:06:20;101106.41;;;11.11;48.59
70909;BME280;58554;52.006;5.926;2023-04-26T10:08:47;101103.69;;;11.13;48.45
70909;BME280;58554;52.006;5.926;2023-04-26T10:11:17;101094.63;;;11.17;48.59
70909;BME280;58554;52.006;5.926;2023-04-26T10:13:45;101096.84;;;11.25;48.27
70909;BME280;58554;52.006;5.926;2023-04-26T10:16:11;101102.56;;;11.33;48.39
70909;BME280;58554;52.006;5.926;2023-04-26T10:18:38;101094.06;;;11.44;48.32
70909;BME280;58554;52.006;5.926;2023-04-26T10:21:09;101093.53;;;11.53;47.99
70909;BME280;58554;52.006;5.926;2023-04-26T10:23:37;101097.19;;;11.66;47.62
70909;BME280;58554;52.006;5.926;2023-04-26T10:26:05;101089.50;;;11.78;47.60
70909;BME280;58554;52.006;5.926;2023-04-26T10:28:56;101095.63;;;11.94;47.12
70909;BME280;58554;52.006;5.926;2023-04-26T10:31:22;101090.56;;;12.05;47.37
70909;BME280;58554;52.006;5.926;2023-04-26T10:34:19;101085.47;;;12.16;46.40
70909;BME280;58554;52.006;5.926;2023-04-26T10:37:07;101091.16;;;12.25;46.45
70909;BME280;58554;52.006;5.926;2023-04-26T10:39:39;101088.88;;;12.34;46.72
70909;BME280;58554;52.006;5.926;2023-04-26T10:42:30;101087.94;;;12.50;46.09
70909;BME280;58554;52.006;5.926;2023-04-26T10:45:25;101090.81;;;12.61;45.96
70909;BME280;58554;52.006;5.926;2023-04-26T10:48:14;101095.75;;;12.67;46.08
70909;BME280;58554;52.006;5.926;2023-04-26T10:51:09;101087.88;;;12.66;45.91
70909;BME280;58554;52.006;5.926;2023-04-26T10:53:57;101080.19;;;12.61;45.98
70909;BME280;58554;52.006;5.926;2023-04-26T10:56:51;101086.63;;;12.57;45.61
70909;BME280;58554;52.006;5.926;2023-04-26T10:59:19;101090.50;;;12.51;46.14
70909;BME280;58554;52.006;5.926;2023-04-26T11:01:51;101083.38;;;12.52;46.15
70909;BME280;58554;52.006;5.926;2023-04-26T11:04:17;101081.63;;;12.52;46.31
70909;BME280;58554;52.006;5.926;2023-04-26T11:06:48;101090.34;;;12.54;46.01
70909;BME280;58554;52.006;5.926;2023-04-26T11:09:33;101088.44;;;12.56;45.82
70909;BME280;58554;52.006;5.926;2023-04-26T11:12:03;101093.75;;;12.56;46.01
70909;BME280;58554;52.006;5.926;2023-04-26T11:14:45;101085.03;;;12.54;45.99
70909;BME280;58554;52.006;5.926;2023-04-26T11:17:14;101083.13;;;12.56;46.04
70909;BME280;58554;52.006;5.926;2023-04-26T11:19:41;101080.09;;;12.63;45.74
70909;BME280;58554;52.006;5.926;2023-04-26T11:22:07;101082.38;;;12.69;45.88
70909;BME280;58554;52.006;5.926;2023-04-26T11:24:34;101084.56;;;12.76;45.67
70909;BME280;58554;52.006;5.926;2023-04-26T11:27:07;101074.22;;;12.86;45.83
70909;BME280;58554;52.006;5.926;2023-04-26T11:29:34;101081.81;;;12.92;45.64
70909;BME280;58554;52.006;5.926;2023-04-26T11:32:01;101071.75;;;12.97;45.57
70909;BME280;58554;52.006;5.926;2023-04-26T11:34:33;101076.66;;;13.04;45.50
70909;BME280;58554;52.006;5.926;2023-04-26T11:37:01;101073.84;;;13.07;45.17
70909;BME280;58554;52.006;5.926;2023-04-26T11:39:28;101074.59;;;13.09;45.20
70909;BME280;58554;52.006;5.926;2023-04-26T11:42:03;101073.53;;;13.11;45.06
70909;BME280;58554;52.006;5.926;2023-04-26T11:44:30;101076.97;;;13.13;44.84
70909;BME280;58554;52.006;5.926;2023-04-26T11:46:57;101074.38;;;13.12;44.63
70909;BME280;58554;52.006;5.926;2023-04-26T11:49:24;101077.25;;;13.09;44.22
70909;BME280;58554;52.006;5.926;2023-04-26T11:51:53;101065.03;;;13.06;44.23
70909;BME280;58554;52.006;5.926;2023-04-26T11:54:27;101070.44;;;13.05;44.22
70909;BME280;58554;52.006;5.926;2023-04-26T11:56:53;101075.06;;;13.01;44.24
70909;BME280;58554;52.006;5.926;2023-04-26T11:59:22;101069.22;;;12.96;44.25
70909;BME280;58554;52.006;5.926;2023-04-26T12:01:49;101072.81;;;12.95;44.28
70909;BME280;58554;52.006;5.926;2023-04-26T12:04:16;101072.72;;;12.96;44.09
70909;BME280;58554;52.006;5.926;2023-04-26T12:06:44;101070.34;;;13.06;44.55
70909;BME280;58554;52.006;5.926;2023-04-26T12:09:14;101064.91;;;13.22;44.68
70909;BME280;58554;52.006;5.926;2023-04-26T12:11:40;101059.56;;;13.36;44.40
70909;BME280;58554;52.006;5.926;2023-04-26T12:14:14;101063.69;;;13.55;44.17
70909;BME280;58554;52.006;5.926;2023-04-26T12:16:41;101064.06;;;13.63;44.00
70909;BME280;58554;52.006;5.926;2023-04-26T12:19:08;101067.38;;;13.67;43.64
70909;BME280;58554;52.006;5.926;2023-04-26T12:21:45;101064.31;;;13.73;43.34
70909;BME280;58554;52.006;5.926;2023-04-26T12:24:27;101064.00;;;13.77;42.86
70909;BME280;58554;52.006;5.926;2023-04-26T12:26:59;101061.88;;;13.83;43.46
70909;BME280;58554;52.006;5.926;2023-04-26T12:29:26;101065.09;;;13.88;43.36
70909;BME280;58554;52.006;5.926;2023-04-26T12:31:52;101056.72;;;13.94;43.52
70909;BME280;58554;52.006;5.926;2023-04-26T12:34:19;101065.31;;;13.97;43.09
70909;BME280;58554;52.006;5.926;2023-04-26T12:36:45;101053.75;;;13.98;42.82
70909;BME280;58554;52.006;5.926;2023-04-26T12:39:12;101057.47;;;13.96;42.67
70909;BME280;58554;52.006;5.926;2023-04-26T12:41:41;101057.66;;;13.93;42.89
70909;BME280;58554;52.006;5.926;2023-04-26T12:44:08;101067.56;;;13.91;42.71
70909;BME280;58554;52.006;5.926;2023-04-26T12:46:36;101061.69;;;13.86;42.89
70909;BME280;58554;52.006;5.926;2023-04-26T12:49:03;101061.88;;;13.83;42.78
70909;BME280;58554;52.006;5.926;2023-04-26T12:51:30;101060.69;;;13.74;42.44
70909;BME280;58554;52.006;5.926;2023-04-26T12:53:56;101065.66;;;13.66;42.45
70909;BME280;58554;52.006;5.926;2023-04-26T12:56:23;101066.28;;;13.56;42.37
70909;BME280;58554;52.006;5.926;2023-04-26T12:58:53;101068.72;;;13.45;42.52
70909;BME280;58554;52.006;5.926;2023-04-26T13:01:19;101061.53;;;13.33;42.37